Aviation Digital Data Service (ADDS)

Output produced by METARs form (0609 UTC 21 January 2019)
found at http://www.aviationweather.gov/metar/data/
 
METAR text: CYFB 210600Z 08005KT 030V090 15SM SKC M28/M33 A2987 RMK SLP123
Conditions at: CYFB (FROBISHER/IQALUI, NU, CA) observed 0600 UTC 21 January 2019
Temperature: -28.0°C (-18°F)
Dewpoint: -33.0°C (-27°F) [RH = 62%]
Pressure (altimeter): 29.87 inches Hg (1011.6 mb)
[Sea-level pressure: 1012.3 mb]
Winds: from the E (80 degrees) at 6 MPH (5 knots; 2.6 m/s)
Visibility: 15 miles (24 km)
Ceiling: at least 12,000 feet AGL
Clouds: clear skies
Weather: no significant weather observed at this time

METAR text: CYFB 210500Z 07003KT 050V140 15SM SKC M28/M33 A2986 RMK SLP120
Conditions at: CYFB (FROBISHER/IQALUI, NU, CA) observed 0500 UTC 21 January 2019
Temperature: -28.0°C (-18°F)
Dewpoint: -33.0°C (-27°F) [RH = 62%]
Pressure (altimeter): 29.86 inches Hg (1011.3 mb)
[Sea-level pressure: 1012.0 mb]
Winds: from the ENE (70 degrees) at 3 MPH (3 knots; 1.5 m/s)
Visibility: 15 miles (24 km)
Ceiling: at least 12,000 feet AGL
Clouds: clear skies
Weather: no significant weather observed at this time

METAR text: CYFB 210400Z VRB02KT 15SM SKC M28/M32 A2986 RMK SLP118
Conditions at: CYFB (FROBISHER/IQALUI, NU, CA) observed 0400 UTC 21 January 2019
Temperature: -28.0°C (-18°F)
Dewpoint: -32.0°C (-26°F) [RH = 69%]
Pressure (altimeter): 29.86 inches Hg (1011.3 mb)
[Sea-level pressure: 1011.8 mb]
Winds: variable direction winds at 2 MPH (2 knots; 1.0 m/s)
Visibility: 15 miles (24 km)
Ceiling: at least 12,000 feet AGL
Clouds: clear skies
Weather: no significant weather observed at this time

METAR text: CYFB 210300Z 00000KT 15SM FEW058 SCT120 M27/M32 A2985 RMK SC1AC2 SLP116
Conditions at: CYFB (FROBISHER/IQALUI, NU, CA) observed 0300 UTC 21 January 2019
Temperature: -27.0°C (-17°F)
Dewpoint: -32.0°C (-26°F) [RH = 63%]
Pressure (altimeter): 29.85 inches Hg (1010.9 mb)
[Sea-level pressure: 1011.6 mb]
Winds: calm
Visibility: 15 miles (24 km)
Ceiling: at least 12,000 feet AGL
Clouds: few clouds at 5800 feet AGL
scattered clouds at 12000 feet AGL
Weather: no significant weather observed at this time

METAR text: CYFB 210200Z VRB02KT 15SM FEW058 BKN120 M26/M31 A2985 RMK SC1AC4 SLP115
Conditions at: CYFB (FROBISHER/IQALUI, NU, CA) observed 0200 UTC 21 January 2019
Temperature: -26.0°C (-15°F)
Dewpoint: -31.0°C (-24°F) [RH = 63%]
Pressure (altimeter): 29.85 inches Hg (1010.9 mb)
[Sea-level pressure: 1011.5 mb]
Winds: variable direction winds at 2 MPH (2 knots; 1.0 m/s)
Visibility: 15 miles (24 km)
Ceiling: 12000 feet AGL
Clouds: few clouds at 5800 feet AGL
broken clouds at 12000 feet AGL
Weather: no significant weather observed at this time

METAR text: CYFB 210100Z 24002KT 15SM SCT058 OVC120 M25/M31 A2984 RMK SC4AS4 SLP112
Conditions at: CYFB (FROBISHER/IQALUI, NU, CA) observed 0100 UTC 21 January 2019
Temperature: -25.0°C (-13°F)
Dewpoint: -31.0°C (-24°F) [RH = 57%]
Pressure (altimeter): 29.84 inches Hg (1010.6 mb)
[Sea-level pressure: 1011.2 mb]
Winds: from the WSW (240 degrees) at 2 MPH (2 knots; 1.0 m/s)
Visibility: 15 miles (24 km)
Ceiling: 12000 feet AGL
Clouds: scattered clouds at 5800 feet AGL
overcast cloud deck at 12000 feet AGL
Weather: no significant weather observed at this time

METAR text: CYFB 210000Z 20007KT 150V220 15SM SCT058 BKN110 M24/M29 A2983 RMK SC4AS3 SLP109
Conditions at: CYFB (FROBISHER/IQALUI, NU, CA) observed 0000 UTC 21 January 2019
Temperature: -24.0°C (-11°F)
Dewpoint: -29.0°C (-20°F) [RH = 63%]
Pressure (altimeter): 29.83 inches Hg (1010.2 mb)
[Sea-level pressure: 1010.9 mb]
Winds: from the SSW (200 degrees) at 8 MPH (7 knots; 3.6 m/s)
Visibility: 15 miles (24 km)
Ceiling: 11000 feet AGL
Clouds: scattered clouds at 5800 feet AGL
broken clouds at 11000 feet AGL
Weather: no significant weather observed at this time

METAR text: CYFB 202300Z 14006KT 090V170 15SM BKN058 OVC110 M25/M29 A2982 RMK SC5AS3 MOON DIMLY VISBL SLP104
Conditions at: CYFB (FROBISHER/IQALUI, NU, CA) observed 2300 UTC 20 January 2019
Temperature: -25.0°C (-13°F)
Dewpoint: -29.0°C (-20°F) [RH = 69%]
Pressure (altimeter): 29.82 inches Hg (1009.9 mb)
[Sea-level pressure: 1010.4 mb]
Winds: from the SE (140 degrees) at 7 MPH (6 knots; 3.1 m/s)
Visibility: 15 miles (24 km)
Ceiling: 5800 feet AGL
Clouds: broken clouds at 5800 feet AGL
overcast cloud deck at 11000 feet AGL
Weather: no significant weather observed at this time

METAR text: CYFB 202200Z 00000KT 15SM FEW032 FEW058 BKN110 M26/M30 A2981 RMK SC1SC1AC5 MOON DIMLY VISBL SLP101
Conditions at: CYFB (FROBISHER/IQALUI, NU, CA) observed 2200 UTC 20 January 2019
Temperature: -26.0°C (-15°F)
Dewpoint: -30.0°C (-22°F) [RH = 69%]
Pressure (altimeter): 29.81 inches Hg (1009.6 mb)
[Sea-level pressure: 1010.1 mb]
Winds: calm
Visibility: 15 miles (24 km)
Ceiling: 11000 feet AGL
Clouds: few clouds at 3200 feet AGL
few clouds at 5800 feet AGL
broken clouds at 11000 feet AGL
Weather: no significant weather observed at this time

METAR text: CYFB 202100Z VRB02KT 15SM FEW028 BKN110 M28/M31 A2980 RMK SC1AC6 SLP098
Conditions at: CYFB (FROBISHER/IQALUI, NU, CA) observed 2100 UTC 20 January 2019
Temperature: -28.0°C (-18°F)
Dewpoint: -31.0°C (-24°F) [RH = 75%]
Pressure (altimeter): 29.80 inches Hg (1009.2 mb)
[Sea-level pressure: 1009.8 mb]
Winds: variable direction winds at 2 MPH (2 knots; 1.0 m/s)
Visibility: 15 miles (24 km)
Ceiling: 11000 feet AGL
Clouds: few clouds at 2800 feet AGL
broken clouds at 11000 feet AGL
Weather: no significant weather observed at this time

METAR text: CYFB 202000Z 22004KT 170V240 30SM FEW028 BKN110 M27/M31 A2978 RMK SC1AC6 SLP091
Conditions at: CYFB (FROBISHER/IQALUI, NU, CA) observed 2000 UTC 20 January 2019
Temperature: -27.0°C (-17°F)
Dewpoint: -31.0°C (-24°F) [RH = 69%]
Pressure (altimeter): 29.78 inches Hg (1008.5 mb)
[Sea-level pressure: 1009.1 mb]
Winds: from the SW (220 degrees) at 5 MPH (4 knots; 2.1 m/s)
Visibility: 30 miles (48 km)
Ceiling: 11000 feet AGL
Clouds: few clouds at 2800 feet AGL
broken clouds at 11000 feet AGL
Weather: no significant weather observed at this time

METAR text: CYFB 201900Z 36005KT 30SM IC FEW028 BKN100 M29/M32 A2976 RMK SC1AC6 SLP085
Conditions at: CYFB (FROBISHER/IQALUI, NU, CA) observed 1900 UTC 20 January 2019
Temperature: -29.0°C (-20°F)
Dewpoint: -32.0°C (-26°F) [RH = 75%]
Pressure (altimeter): 29.76 inches Hg (1007.9 mb)
[Sea-level pressure: 1008.5 mb]
Winds: from the N (360 degrees) at 6 MPH (5 knots; 2.6 m/s)
Visibility: 30 miles (48 km)
Ceiling: 10000 feet AGL
Clouds: few clouds at 2800 feet AGL
broken clouds at 10000 feet AGL
Weather: IC  (ice crystals)

METAR text: CYFB 201800Z 35004KT 30SM IC FEW025 SCT110 M28/M32 A2976 RMK SC1AC3 SLP085
Conditions at: CYFB (FROBISHER/IQALUI, NU, CA) observed 1800 UTC 20 January 2019
Temperature: -28.0°C (-18°F)
Dewpoint: -32.0°C (-26°F) [RH = 69%]
Pressure (altimeter): 29.76 inches Hg (1007.9 mb)
[Sea-level pressure: 1008.5 mb]
Winds: from the N (350 degrees) at 5 MPH (4 knots; 2.1 m/s)
Visibility: 30 miles (48 km)
Ceiling: at least 12,000 feet AGL
Clouds: few clouds at 2500 feet AGL
scattered clouds at 11000 feet AGL
Weather: IC  (ice crystals)

METAR text: CYFB 201700Z 36003KT 290V030 30SM IC FEW028 M28/M32 A2976 RMK SC1 SLP084
Conditions at: CYFB (FROBISHER/IQALUI, NU, CA) observed 1700 UTC 20 January 2019
Temperature: -28.0°C (-18°F)
Dewpoint: -32.0°C (-26°F) [RH = 69%]
Pressure (altimeter): 29.76 inches Hg (1007.9 mb)
[Sea-level pressure: 1008.4 mb]
Winds: from the N (360 degrees) at 3 MPH (3 knots; 1.5 m/s)
Visibility: 30 miles (48 km)
Ceiling: at least 12,000 feet AGL
Clouds: few clouds at 2800 feet AGL
Weather: IC  (ice crystals)

METAR text: CYFB 201600Z 00000KT 25SM IC FEW120 M30/M33 A2976 RMK AC2 SLP084
Conditions at: CYFB (FROBISHER/IQALUI, NU, CA) observed 1600 UTC 20 January 2019
Temperature: -30.0°C (-22°F)
Dewpoint: -33.0°C (-27°F) [RH = 75%]
Pressure (altimeter): 29.76 inches Hg (1007.9 mb)
[Sea-level pressure: 1008.4 mb]
Winds: calm
Visibility: 25 miles (40 km)
Ceiling: at least 12,000 feet AGL
Clouds: few clouds at 12000 feet AGL
Weather: IC  (ice crystals)

METAR text: CYFB 201500Z 33004KT 30SM IC FEW120 M31/M34 A2976 RMK AC2 SLP083
Conditions at: CYFB (FROBISHER/IQALUI, NU, CA) observed 1500 UTC 20 January 2019
Temperature: -31.0°C (-24°F)
Dewpoint: -34.0°C (-29°F) [RH = 75%]
Pressure (altimeter): 29.76 inches Hg (1007.9 mb)
[Sea-level pressure: 1008.3 mb]
Winds: from the NNW (330 degrees) at 5 MPH (4 knots; 2.1 m/s)
Visibility: 30 miles (48 km)
Ceiling: at least 12,000 feet AGL
Clouds: few clouds at 12000 feet AGL
Weather: IC  (ice crystals)

METAR text: CYFB 201400Z 30003KT 30SM IC FEW120 M33/M36 A2976 RMK AC2 SLP084
Conditions at: CYFB (FROBISHER/IQALUI, NU, CA) observed 1400 UTC 20 January 2019
Temperature: -33.0°C (-27°F)
Dewpoint: -36.0°C (-33°F) [RH = 74%]
Pressure (altimeter): 29.76 inches Hg (1007.9 mb)
[Sea-level pressure: 1008.4 mb]
Winds: from the WNW (300 degrees) at 3 MPH (3 knots; 1.5 m/s)
Visibility: 30 miles (48 km)
Ceiling: at least 12,000 feet AGL
Clouds: few clouds at 12000 feet AGL
Weather: IC  (ice crystals)

METAR text: CYFB 201300Z 34004KT 30SM IC FEW150 M34/M37 A2975 RMK AC2 SLP081
Conditions at: CYFB (FROBISHER/IQALUI, NU, CA) observed 1300 UTC 20 January 2019
Temperature: -34.0°C (-29°F)
Dewpoint: -37.0°C (-35°F) [RH = 74%]
Pressure (altimeter): 29.75 inches Hg (1007.5 mb)
[Sea-level pressure: 1008.1 mb]
Winds: from the NNW (340 degrees) at 5 MPH (4 knots; 2.1 m/s)
Visibility: 30 miles (48 km)
Ceiling: at least 12,000 feet AGL
Clouds: few clouds at 15000 feet AGL
Weather: IC  (ice crystals)

METAR text: CYFB 201235Z 00000KT 20SM IC FEW150 M32/M35 A2975 RMK AC2 SLP081
Conditions at: CYFB (FROBISHER/IQALUI, NU, CA) observed 1235 UTC 20 January 2019
Temperature: -32.0°C (-26°F)
Dewpoint: -35.0°C (-31°F) [RH = 75%]
Pressure (altimeter): 29.75 inches Hg (1007.5 mb)
[Sea-level pressure: 1008.1 mb]
Winds: calm
Visibility: 20 miles (32 km)
Ceiling: at least 12,000 feet AGL
Clouds: few clouds at 15000 feet AGL
Weather: IC  (ice crystals)

METAR text: CYFB 201200Z 00000KT 15SM FEW150 M32/M35 A2974 RMK AC1 AC TR FROIN SLP077
Conditions at: CYFB (FROBISHER/IQALUI, NU, CA) observed 1200 UTC 20 January 2019
Temperature: -32.0°C (-26°F)
Dewpoint: -35.0°C (-31°F) [RH = 75%]
Pressure (altimeter): 29.74 inches Hg (1007.2 mb)
[Sea-level pressure: 1007.7 mb]
Winds: calm
Visibility: 15 miles (24 km)
Ceiling: at least 12,000 feet AGL
Clouds: few clouds at 15000 feet AGL
Weather: no significant weather observed at this time

METAR text: CYFB 201100Z 31003KT 15SM SKC M31/M34 A2974 RMK FROIN SLP077
Conditions at: CYFB (FROBISHER/IQALUI, NU, CA) observed 1100 UTC 20 January 2019
Temperature: -31.0°C (-24°F)
Dewpoint: -34.0°C (-29°F) [RH = 75%]
Pressure (altimeter): 29.74 inches Hg (1007.2 mb)
[Sea-level pressure: 1007.7 mb]
Winds: from the NW (310 degrees) at 3 MPH (3 knots; 1.5 m/s)
Visibility: 15 miles (24 km)
Ceiling: at least 12,000 feet AGL
Clouds: clear skies
Weather: no significant weather observed at this time

METAR text: CYFB 201000Z 36003KT 340V090 15SM FEW250 M31/M34 A2974 RMK CI1 CI TR SLP077
Conditions at: CYFB (FROBISHER/IQALUI, NU, CA) observed 1000 UTC 20 January 2019
Temperature: -31.0°C (-24°F)
Dewpoint: -34.0°C (-29°F) [RH = 75%]
Pressure (altimeter): 29.74 inches Hg (1007.2 mb)
[Sea-level pressure: 1007.7 mb]
Winds: from the N (360 degrees) at 3 MPH (3 knots; 1.5 m/s)
Visibility: 15 miles (24 km)
Ceiling: at least 12,000 feet AGL
Clouds: few clouds at 25000 feet AGL
Weather: no significant weather observed at this time

METAR text: CYFB 200900Z 34005KT 15SM FEW250 M31/M34 A2974 RMK CI1 CI TR SLP078
Conditions at: CYFB (FROBISHER/IQALUI, NU, CA) observed 0900 UTC 20 January 2019
Temperature: -31.0°C (-24°F)
Dewpoint: -34.0°C (-29°F) [RH = 75%]
Pressure (altimeter): 29.74 inches Hg (1007.2 mb)
[Sea-level pressure: 1007.8 mb]
Winds: from the NNW (340 degrees) at 6 MPH (5 knots; 2.6 m/s)
Visibility: 15 miles (24 km)
Ceiling: at least 12,000 feet AGL
Clouds: few clouds at 25000 feet AGL
Weather: no significant weather observed at this time

METAR text: CYFB 200800Z 34003KT 15SM FEW250 M32/M35 A2973 RMK CI1 CI TR SLP075
Conditions at: CYFB (FROBISHER/IQALUI, NU, CA) observed 0800 UTC 20 January 2019
Temperature: -32.0°C (-26°F)
Dewpoint: -35.0°C (-31°F) [RH = 75%]
Pressure (altimeter): 29.73 inches Hg (1006.9 mb)
[Sea-level pressure: 1007.5 mb]
Winds: from the NNW (340 degrees) at 3 MPH (3 knots; 1.5 m/s)
Visibility: 15 miles (24 km)
Ceiling: at least 12,000 feet AGL
Clouds: few clouds at 25000 feet AGL
Weather: no significant weather observed at this time

METAR text: CYFB 200700Z VRB02KT 15SM SKC M32/M35 A2973 RMK FROIN SLP075
Conditions at: CYFB (FROBISHER/IQALUI, NU, CA) observed 0700 UTC 20 January 2019
Temperature: -32.0°C (-26°F)
Dewpoint: -35.0°C (-31°F) [RH = 75%]
Pressure (altimeter): 29.73 inches Hg (1006.9 mb)
[Sea-level pressure: 1007.5 mb]
Winds: variable direction winds at 2 MPH (2 knots; 1.0 m/s)
Visibility: 15 miles (24 km)
Ceiling: at least 12,000 feet AGL
Clouds: clear skies
Weather: no significant weather observed at this time

METAR text: CYFB 200600Z 35004KT 15SM SKC M32/M36 A2972 RMK FROIN SLP071
Conditions at: CYFB (FROBISHER/IQALUI, NU, CA) observed 0600 UTC 20 January 2019
Temperature: -32.0°C (-26°F)
Dewpoint: -36.0°C (-33°F) [RH = 68%]
Pressure (altimeter): 29.72 inches Hg (1006.5 mb)
[Sea-level pressure: 1007.1 mb]
Winds: from the N (350 degrees) at 5 MPH (4 knots; 2.1 m/s)
Visibility: 15 miles (24 km)
Ceiling: at least 12,000 feet AGL
Clouds: clear skies
Weather: no significant weather observed at this time

METAR text: CYFB 200531Z 35004KT 15SM SKC M31/M34 A2972 RMK SLP070
Conditions at: CYFB (FROBISHER/IQALUI, NU, CA) observed 0531 UTC 20 January 2019
Temperature: -31.0°C (-24°F)
Dewpoint: -34.0°C (-29°F) [RH = 75%]
Pressure (altimeter): 29.72 inches Hg (1006.5 mb)
[Sea-level pressure: 1007.0 mb]
Winds: from the N (350 degrees) at 5 MPH (4 knots; 2.1 m/s)
Visibility: 15 miles (24 km)
Ceiling: at least 12,000 feet AGL
Clouds: clear skies
Weather: no significant weather observed at this time

METAR text: CYFB 200503Z 00000KT 15SM IC SKC M32/M35 A2972 RMK FROIN SLP072
Conditions at: CYFB (FROBISHER/IQALUI, NU, CA) observed 0503 UTC 20 January 2019
Temperature: -32.0°C (-26°F)
Dewpoint: -35.0°C (-31°F) [RH = 75%]
Pressure (altimeter): 29.72 inches Hg (1006.5 mb)
[Sea-level pressure: 1007.2 mb]
Winds: calm
Visibility: 15 miles (24 km)
Ceiling: at least 12,000 feet AGL
Clouds: clear skies
Weather: IC  (ice crystals)

METAR text: CYFB 200500Z 00000KT 15SM SKC M32/M35 A2972 RMK FROIN SLP072
Conditions at: CYFB (FROBISHER/IQALUI, NU, CA) observed 0500 UTC 20 January 2019
Temperature: -32.0°C (-26°F)
Dewpoint: -35.0°C (-31°F) [RH = 75%]
Pressure (altimeter): 29.72 inches Hg (1006.5 mb)
[Sea-level pressure: 1007.2 mb]
Winds: calm
Visibility: 15 miles (24 km)
Ceiling: at least 12,000 feet AGL
Clouds: clear skies
Weather: no significant weather observed at this time

METAR text: CYFB 200400Z 35003KT 290V010 15SM SKC M30/M34 A2973 RMK FROIN SLP073
Conditions at: CYFB (FROBISHER/IQALUI, NU, CA) observed 0400 UTC 20 January 2019
Temperature: -30.0°C (-22°F)
Dewpoint: -34.0°C (-29°F) [RH = 68%]
Pressure (altimeter): 29.73 inches Hg (1006.9 mb)
[Sea-level pressure: 1007.3 mb]
Winds: from the N (350 degrees) at 3 MPH (3 knots; 1.5 m/s)
Visibility: 15 miles (24 km)
Ceiling: at least 12,000 feet AGL
Clouds: clear skies
Weather: no significant weather observed at this time

METAR text: CYFB 200300Z 34004KT 15SM SKC M31/M34 A2973 RMK FROIN AURBO SLP076
Conditions at: CYFB (FROBISHER/IQALUI, NU, CA) observed 0300 UTC 20 January 2019
Temperature: -31.0°C (-24°F)
Dewpoint: -34.0°C (-29°F) [RH = 75%]
Pressure (altimeter): 29.73 inches Hg (1006.9 mb)
[Sea-level pressure: 1007.6 mb]
Winds: from the NNW (340 degrees) at 5 MPH (4 knots; 2.1 m/s)
Visibility: 15 miles (24 km)
Ceiling: at least 12,000 feet AGL
Clouds: clear skies
Weather: no significant weather observed at this time

METAR text: CYFB 200200Z 33005KT 15SM FEW140 M30/M33 A2973 RMK AC2 SLP074
Conditions at: CYFB (FROBISHER/IQALUI, NU, CA) observed 0200 UTC 20 January 2019
Temperature: -30.0°C (-22°F)
Dewpoint: -33.0°C (-27°F) [RH = 75%]
Pressure (altimeter): 29.73 inches Hg (1006.9 mb)
[Sea-level pressure: 1007.4 mb]
Winds: from the NNW (330 degrees) at 6 MPH (5 knots; 2.6 m/s)
Visibility: 15 miles (24 km)
Ceiling: at least 12,000 feet AGL
Clouds: few clouds at 14000 feet AGL
Weather: no significant weather observed at this time

METAR text: CYFB 200100Z 34002KT 15SM FEW140 M30/M34 A2974 RMK AC2 SLP077
Conditions at: CYFB (FROBISHER/IQALUI, NU, CA) observed 0100 UTC 20 January 2019
Temperature: -30.0°C (-22°F)
Dewpoint: -34.0°C (-29°F) [RH = 68%]
Pressure (altimeter): 29.74 inches Hg (1007.2 mb)
[Sea-level pressure: 1007.7 mb]
Winds: from the NNW (340 degrees) at 2 MPH (2 knots; 1.0 m/s)
Visibility: 15 miles (24 km)
Ceiling: at least 12,000 feet AGL
Clouds: few clouds at 14000 feet AGL
Weather: no significant weather observed at this time

METAR text: CYFB 200000Z VRB02KT 15SM SCT140 M30/M33 A2973 RMK AC4 SLP076
Conditions at: CYFB (FROBISHER/IQALUI, NU, CA) observed 0000 UTC 20 January 2019
Temperature: -30.0°C (-22°F)
Dewpoint: -33.0°C (-27°F) [RH = 75%]
Pressure (altimeter): 29.73 inches Hg (1006.9 mb)
[Sea-level pressure: 1007.6 mb]
Winds: variable direction winds at 2 MPH (2 knots; 1.0 m/s)
Visibility: 15 miles (24 km)
Ceiling: at least 12,000 feet AGL
Clouds: scattered clouds at 14000 feet AGL
Weather: no significant weather observed at this time

METAR text: CYFB 192300Z 34008KT 15SM BKN140 M29/M33 A2974 RMK AC5 SLP077
Conditions at: CYFB (FROBISHER/IQALUI, NU, CA) observed 2300 UTC 19 January 2019
Temperature: -29.0°C (-20°F)
Dewpoint: -33.0°C (-27°F) [RH = 68%]
Pressure (altimeter): 29.74 inches Hg (1007.2 mb)
[Sea-level pressure: 1007.7 mb]
Winds: from the NNW (340 degrees) at 9 MPH (8 knots; 4.1 m/s)
Visibility: 15 miles (24 km)
Ceiling: 14000 feet AGL
Clouds: broken clouds at 14000 feet AGL
Weather: no significant weather observed at this time

METAR text: CYFB 192200Z 32011KT 15SM BKN140 M28/M32 A2973 RMK AC6 SLP075
Conditions at: CYFB (FROBISHER/IQALUI, NU, CA) observed 2200 UTC 19 January 2019
Temperature: -28.0°C (-18°F)
Dewpoint: -32.0°C (-26°F) [RH = 69%]
Pressure (altimeter): 29.73 inches Hg (1006.9 mb)
[Sea-level pressure: 1007.5 mb]
Winds: from the NW (320 degrees) at 13 MPH (11 knots; 5.7 m/s)
Visibility: 15 miles (24 km)
Ceiling: 14000 feet AGL
Clouds: broken clouds at 14000 feet AGL
Weather: no significant weather observed at this time

METAR text: CYFB 192136Z 32013KT 15SM BKN140 M27/M32 A2973 RMK AC6 SLP075
Conditions at: CYFB (FROBISHER/IQALUI, NU, CA) observed 2136 UTC 19 January 2019
Temperature: -27.0°C (-17°F)
Dewpoint: -32.0°C (-26°F) [RH = 63%]
Pressure (altimeter): 29.73 inches Hg (1006.9 mb)
[Sea-level pressure: 1007.5 mb]
Winds: from the NW (320 degrees) at 15 MPH (13 knots; 6.7 m/s)
Visibility: 15 miles (24 km)
Ceiling: 14000 feet AGL
Clouds: broken clouds at 14000 feet AGL
Weather: no significant weather observed at this time

METAR text: CYFB 192100Z 33014KT 15SM IC DRSN BKN140 M28/M32 A2973 RMK AC6 SLP073
Conditions at: CYFB (FROBISHER/IQALUI, NU, CA) observed 2100 UTC 19 January 2019
Temperature: -28.0°C (-18°F)
Dewpoint: -32.0°C (-26°F) [RH = 69%]
Pressure (altimeter): 29.73 inches Hg (1006.9 mb)
[Sea-level pressure: 1007.3 mb]
Winds: from the NNW (330 degrees) at 16 MPH (14 knots; 7.2 m/s)
Visibility: 15 miles (24 km)
Ceiling: 14000 feet AGL
Clouds: broken clouds at 14000 feet AGL
Weather: IC DRSN  (ice crystals, low drifting snow)

METAR text: CYFB 192000Z 35018KT 25SM IC DRSN BKN140 M25/M30 A2971 RMK AC6 SLP069
Conditions at: CYFB (FROBISHER/IQALUI, NU, CA) observed 2000 UTC 19 January 2019
Temperature: -25.0°C (-13°F)
Dewpoint: -30.0°C (-22°F) [RH = 63%]
Pressure (altimeter): 29.71 inches Hg (1006.2 mb)
[Sea-level pressure: 1006.9 mb]
Winds: from the N (350 degrees) at 21 MPH (18 knots; 9.3 m/s)
Visibility: 25 miles (40 km)
Ceiling: 14000 feet AGL
Clouds: broken clouds at 14000 feet AGL
Weather: IC DRSN  (ice crystals, low drifting snow)

METAR text: CYFB 191900Z 35016KT 25SM IC DRSN BKN150 BKN240 M26/M31 A2971 RMK AC5CI2 SLP067
Conditions at: CYFB (FROBISHER/IQALUI, NU, CA) observed 1900 UTC 19 January 2019
Temperature: -26.0°C (-15°F)
Dewpoint: -31.0°C (-24°F) [RH = 63%]
Pressure (altimeter): 29.71 inches Hg (1006.2 mb)
[Sea-level pressure: 1006.7 mb]
Winds: from the N (350 degrees) at 18 MPH (16 knots; 8.2 m/s)
Visibility: 25 miles (40 km)
Ceiling: 15000 feet AGL
Clouds: broken clouds at 15000 feet AGL
broken clouds at 24000 feet AGL
Weather: IC DRSN  (ice crystals, low drifting snow)

Forecast for: CYFB (FROBISHER/IQALUI, NU, CA)
Text: TAF CYFB 210538Z 2106/2206 VRB03KT P6SM FEW030
Forecast period: 0600 to 2000 UTC 21 January 2019
Forecast type: FROM: standard forecast or significant change
Winds: variable direction winds at 3 MPH (3 knots; 1.5 m/s)
Visibility: 6 or more miles 10+ km)
Ceiling: at least 12,000 feet AGL
Clouds: few clouds at 3000 feet AGL
Weather: no significant weather forecast for this period
Text: FM212000 14010KT P6SM SCT030 BKN050 BKN120
Forecast period: 2000 to 2300 UTC 21 January 2019
Forecast type: FROM: standard forecast or significant change
Winds: from the SE (140 degrees) at 12 MPH (10 knots; 5.1 m/s)
Visibility: 6 or more miles 10+ km)
Ceiling: 5000 feet AGL
Clouds: scattered clouds at 3000 feet AGL
broken clouds at 5000 feet AGL
broken clouds at 12000 feet AGL
Weather: no significant weather forecast for this period
Text: TEMPO 2120/2206 5SM -SN BKN030 BKN050 OVC080
Forecast period: 2000 UTC 21 January 2019 to 0600 UTC 22 January 2019
Forecast type: TEMPORARY: The following changes expected for less than half the time period
Visibility: 5 miles (8 km)
Ceiling: 3000 feet AGL
Clouds: broken clouds at 3000 feet AGL
broken clouds at 5000 feet AGL
overcast cloud deck at 8000 feet AGL
Weather: -SN  (light snow)
Text: BECMG 2123/2201 14015KT RMK NXT FCST BY 211200Z
Forecast period: 2300 UTC 21 January 2019 to 0600 UTC 22 January 2019
Forecast type: BECOMING: Conditions expected to become as follows by 0100 UTC 22 January 2019
Winds: from the SE (140 degrees) at 17 MPH (15 knots; 7.7 m/s)
Visibility: 6 or more miles 10+ km)
Ceiling: 5000 feet AGL
Clouds: scattered clouds at 3000 feet AGL
broken clouds at 5000 feet AGL
broken clouds at 12000 feet AGL
Weather: no significant weather forecast for this period